Flight Track Log - Related Links

Times and Time Zones

All times are in EDT time to prevent confusion due to time zone crossing. See the JZA7952 flight status page for this flight to view local times or setup timezone preferences in your user account.

Time Position Orientation Groundspeed Altitude Reporting Facility
EDT Latitude Longitude Course Direction KTS MPH feet Rate Location/Type
Fri 07:18:06 AM 44.9000 -93.2500 69° East 175 201 2,700  Level Minneapolis TRACON
Fri 07:18:44 AM 44.9275 -93.2792 323° Northwest 198 228 4,000 2,303 Climbing Minneapolis Center
Fri 07:19:45 AM 44.9886 -93.2953 349° North 247 284 6,500 2,852 Climbing Minneapolis Center
Fri 07:20:46 AM 45.0369 -93.2250 46° Northeast 259 298 9,800 3,074 Climbing Minneapolis Center
Fri 07:21:00 AM 45.0336 -92.6285 66° East  Level FlightAware
Fri 07:21:46 AM 45.0744 -93.1275 61° Northeast 279 321 12,700  Level Minneapolis Center
Fri 07:22:00 AM 45.0784 -92.4827 66° East  Level FlightAware
Fri 07:22:47 AM 45.1133 -93.0233 62° Northeast 296 341 15,200  Level Minneapolis Center
Fri 07:23:00 AM 45.1133 -92.3337 69° East  Level FlightAware
Fri 07:23:47 AM 45.1550 -92.9125 62° Northeast 317 365 17,500  Level Minneapolis Center
Fri 07:24:48 AM 45.1967 -92.7994 62° Northeast 322 371 19,400 1,820 Climbing Minneapolis Center
Fri 07:25:49 AM 45.2417 -92.6778 62° Northeast 345 397 21,200 1,983 Climbing Minneapolis Center
Fri 07:26:49 AM 45.2731 -92.5164 74° East 359 413 23,400 1,835 Climbing Minneapolis Center
Fri 07:27:50 AM 45.2908 -92.3750 80° East 365 420 24,900 1,475 Climbing Minneapolis Center
Fri 07:28:51 AM 45.3114 -92.2303 79° East 373 429 26,400 1,438 Climbing Minneapolis Center
Fri 07:29:51 AM 45.3317 -92.0831 79° East 380 437 27,800 1,140 Climbing Minneapolis Center
Fri 07:30:52 AM 45.3531 -91.9322 79° East 388 447 28,700 934 Climbing Minneapolis Center
Fri 07:31:53 AM 45.3733 -91.7792 79° East 394 453 29,700 942 Climbing Minneapolis Center
Fri 07:32:53 AM 45.3939 -91.6233 79° East 400 460 30,600 744 Climbing Minneapolis Center
Fri 07:33:54 AM 45.4161 -91.4628 79° East 411 473 31,200 689 Climbing Minneapolis Center
Fri 07:34:55 AM 45.4369 -91.2994 80° East 419 482 32,000 689 Climbing Minneapolis Center
Fri 07:35:56 AM 45.4586 -91.1228 80° East 427 491 32,600 496 Climbing Minneapolis Center
Fri 07:36:56 AM 45.4525 -90.9544 93° East 427 491 33,000 198 Climbing Minneapolis Center
Fri 07:37:57 AM 45.4056 -90.7972 113° Southeast 430 495 33,000  Level Minneapolis Center
Fri 07:38:58 AM 45.3547 -90.6336 114° Southeast 449 517 33,000  Level Minneapolis Center
Fri 07:39:59 AM 45.3022 -90.4700 114° Southeast 456 525 33,000  Level Minneapolis Center
Fri 07:40:59 AM 45.2519 -90.3075 114° Southeast 454 522 33,000  Level Minneapolis Center
Fri 07:42:00 AM 45.2008 -90.1492 115° Southeast 447 514 33,000  Level Minneapolis Center
Fri 07:43:01 AM 45.1511 -89.9928 114° Southeast 440 506 33,000  Level Minneapolis Center
Fri 07:44:02 AM 45.1019 -89.8392 114° Southeast 433 498 33,000  Level Minneapolis Center
Fri 07:45:03 AM 45.0453 -89.6642 115° Southeast 431 496 33,000  Level Minneapolis Center
Fri 07:46:03 AM 44.9961 -89.5122 115° Southeast 426 490 33,000  Level Minneapolis Center
Fri 07:47:04 AM 44.9472 -89.3628 115° Southeast 421 484 33,000  Level Minneapolis Center
Fri 07:48:05 AM 44.8978 -89.2133 115° Southeast 420 483 33,000  Level Minneapolis Center
Fri 07:49:06 AM 44.8483 -89.0614 115° Southeast 423 487 33,000  Level Minneapolis Center
Fri 07:50:07 AM 44.7964 -88.9108 116° Southeast 427 491 33,000  Level Minneapolis Center
Fri 07:51:08 AM 44.7464 -88.7564 114° Southeast 431 496 33,000  Level Minneapolis Center
Fri 07:52:09 AM 44.6942 -88.6039 116° Southeast 432 497 33,000  Level Minneapolis Center
Fri 07:53:09 AM 44.6431 -88.4519 115° Southeast 430 495 33,000 330 Level Minneapolis Center
Fri 07:55:11 AM 44.5461 -88.1511 114° Southeast 423 487 34,000 590 Climbing Minneapolis Center
Fri 07:56:12 AM 44.5139 -87.9956 106° East 417 480 34,800 492 Climbing Minneapolis Center
Fri 07:57:13 AM 44.4775 -87.8319 107° East 422 486 35,000 98 Climbing Minneapolis Center
Fri 07:58:14 AM 44.4436 -87.6744 107° East 433 498 35,000  Level Minneapolis Center
Fri 07:59:15 AM 44.4031 -87.4839 107° East 437 503 35,000  Level Minneapolis Center
Fri 08:00:16 AM 44.3664 -87.3178 107° East 444 511 35,000  Level Minneapolis Center
Fri 08:01:17 AM 44.3361 -87.1792 107° East 444 511 35,000  Level Minneapolis Center
Fri 08:02:18 AM 44.2933 -86.9889 107° East 434 499 35,000  Level Minneapolis Center
Fri 08:03:19 AM 44.2589 -86.8331 107° East 426 490 35,000  Level Minneapolis Center
Fri 08:04:20 AM 44.2258 -86.6819 107° East 414 476 35,000  Level Minneapolis Center
Fri 08:05:21 AM 44.1925 -86.5328 107° East 409 471 35,000  Level Minneapolis Center
Fri 08:06:22 AM 44.1597 -86.3867 107° East 402 463 35,000  Level Minneapolis Center
Fri 08:07:23 AM 44.1261 -86.2408 108° East 399 459 35,000  Level Minneapolis Center
Fri 08:08:24 AM 44.0914 -86.0925 108° East 403 464 35,000  Level Minneapolis Center
Fri 08:09:25 AM 44.0569 -85.9411 108° East 408 470 35,000  Level Minneapolis Center
Fri 08:10:27 AM 44.0214 -85.7881 108° East 414 476 35,000  Level Minneapolis Center
Fri 08:11:28 AM 43.9856 -85.6339 108° East 418 481 35,000  Level Minneapolis Center
Fri 08:12:29 AM 43.9489 -85.4772 108° East 423 487 35,000  Level Minneapolis Center
Fri 08:13:30 AM 43.9033 -85.2875 108° East 428 493 35,000  Level Minneapolis Center
Fri 08:14:31 AM 43.8664 -85.1289 108° East 431 496 35,000  Level Minneapolis Center
Fri 08:15:33 AM 43.8272 -84.9686 109° East 436 502 35,000  Level Minneapolis Center
Fri 08:16:34 AM 43.7875 -84.8067 109° East 441 507 35,000  Level Minneapolis Center
Fri 08:17:35 AM 43.7478 -84.6436 109° East 445 512 35,000  Level Minneapolis Center
Fri 08:18:37 AM 43.7086 -84.4797 108° East 448 516 35,000  Level Minneapolis Center
Fri 08:19:38 AM 43.6667 -84.3144 109° East 453 521 35,000  Level Minneapolis Center
Fri 08:20:39 AM 43.6258 -84.1475 109° East 457 526 35,000  Level Minneapolis Center
Fri 08:21:09 AM 43.5964 -84.0403 111° Southeast 457 526 35,000  Level Cleveland Center
Fri 08:22:09 AM 43.5533 -83.8744 110° East 457 526 35,000 -400 Level Cleveland Center
Fri 08:23:09 AM 43.5375 -83.6961 97° East 463 533 34,200 -900 Descending Cleveland Center
Fri 08:24:09 AM 43.5381 -83.5128 90° East 468 539 33,200 -1,100 Descending Cleveland Center
Fri 08:25:09 AM 43.5342 -83.3264 92° East 474 545 32,000 -1,200 Descending Cleveland Center
Fri 08:26:09 AM 43.5322 -83.1458 91° East 474 545 30,800 -1,200 Descending Cleveland Center
Fri 08:27:09 AM 43.5297 -82.9597 91° East 479 551 29,600 -893 Descending Cleveland Center
Fri 08:28:10 AM 43.5250 -82.7764 92° East 479 551 29,000 -300 Descending Cleveland Center
Fri 08:29:09 AM 43.5167 -82.6000 94° East 480 552 29,000  Level Toronto Center
Fri 08:30:09 AM 43.5167 -82.4000 90° East 480 552 29,000  Level Toronto Center
Fri 08:31:09 AM 43.5000 -82.2333 98° East 490 564 29,000  Level Toronto Center
Fri 08:32:09 AM 43.5000 -82.0167 90° East 490 564 29,000 -750 Level Toronto Center
Fri 08:33:09 AM 43.5000 -81.8333 90° East 490 564 27,500 -2,200 Descending Toronto Center
Fri 08:34:09 AM 43.5000 -81.6500 90° East 470 541 24,600 -2,450 Descending Toronto Center
Fri 08:35:09 AM 43.4833 -81.5000 99° East 440 506 22,600 -2,450 Descending Toronto Center
Fri 08:36:09 AM 43.4833 -81.3500 90° East 420 483 19,700 -3,050 Descending Toronto Center
Fri 08:37:09 AM 43.4667 -81.2000 99° East 410 472 16,500 -2,600 Descending Toronto Center
Fri 08:38:09 AM 43.4667 -81.0333 90° East 390 449 14,500 -2,250 Descending Toronto Center
Fri 08:39:09 AM 43.4500 -80.9000 100° East 380 437 12,000 -2,050 Descending Toronto Center
Fri 08:40:09 AM 43.4667 -80.7667 80° East 350 403 10,400 -1,100 Descending Toronto Center
Fri 08:41:09 AM 43.4667 -80.6667 90° East 290 334 9,800 -700 Descending Toronto Center
Fri 08:42:09 AM 43.4667 -80.5500 90° East 280 322 9,000 -750 Descending Toronto Center
Fri 08:43:09 AM 43.4667 -80.4333 90° East 280 322 8,300 -800 Descending Toronto Center
Fri 08:44:09 AM 43.4667 -80.3500 90° East 270 311 7,400 -650 Descending Toronto Center
Fri 08:45:09 AM 43.4833 -80.2500 77° East 260 299 7,000 -200 Descending Toronto Center
Fri 08:46:09 AM 43.4833 -80.1667 90° East 240 276 7,000 -250 Level Toronto Center
Fri 08:47:09 AM 43.4667 -80.0667 103° East 240 276 6,500 -950 Descending Toronto Center
Fri 08:48:09 AM 43.4667 -79.9833 90° East 240 276 5,100 -900 Descending Toronto Center
Fri 08:49:09 AM 43.4667 -79.8833 90° East 230 265 4,700 -550 Descending Toronto Center
Fri 08:50:09 AM 43.5000 -79.8167 55° Northeast 240 276 4,000 -600 Descending Toronto Center
Fri 08:51:09 AM 43.5500 -79.7500 44° Northeast 230 265 3,500 -800 Descending Toronto Center
Fri 08:52:09 AM 43.5833 -79.7000 47° Northeast 220 253 2,400 -1,100 Descending Toronto Center

Login

Don't have an account? Register now (free) for customized features, flight alerts, and more!